sensor_id;sensor_type;location;lat;lon;timestamp;P1;durP1;ratioP1;P2;durP2;ratioP2
22282;SDS011;11310;51.528;21.204;2023-05-16T19:31:46;177.73;;;36.17;;
22282;SDS011;11310;51.528;21.204;2023-05-16T19:36:47;103.85;;;17.30;;
22282;SDS011;11310;51.528;21.204;2023-05-16T19:39:16;9.55;;;4.40;;
22282;SDS011;11310;51.528;21.204;2023-05-16T19:41:44;7.72;;;3.90;;
22282;SDS011;11310;51.528;21.204;2023-05-16T19:44:18;25.75;;;11.63;;
22282;SDS011;11310;51.528;21.204;2023-05-16T19:46:48;22.77;;;10.30;;
22282;SDS011;11310;51.528;21.204;2023-05-16T19:49:17;68.45;;;14.57;;
22282;SDS011;11310;51.528;21.204;2023-05-16T19:51:46;21.63;;;9.38;;
22282;SDS011;11310;51.528;21.204;2023-05-16T19:54:14;189.13;;;22.90;;
22282;SDS011;11310;51.528;21.204;2023-05-16T19:56:43;6.88;;;3.38;;
22282;SDS011;11310;51.528;21.204;2023-05-16T19:59:11;6.30;;;2.95;;
22282;SDS011;11310;51.528;21.204;2023-05-16T20:01:40;12.07;;;3.38;;
22282;SDS011;11310;51.528;21.204;2023-05-16T20:04:11;4.95;;;2.97;;
22282;SDS011;11310;51.528;21.204;2023-05-16T20:06:40;5.88;;;2.85;;
22282;SDS011;11310;51.528;21.204;2023-05-16T20:09:11;8.67;;;3.30;;
22282;SDS011;11310;51.528;21.204;2023-05-16T20:11:40;5.65;;;2.58;;
22282;SDS011;11310;51.528;21.204;2023-05-16T20:14:10;6.90;;;3.00;;
22282;SDS011;11310;51.528;21.204;2023-05-16T20:16:38;4.55;;;2.47;;
22282;SDS011;11310;51.528;21.204;2023-05-16T20:19:07;6.15;;;2.70;;
22282;SDS011;11310;51.528;21.204;2023-05-16T20:21:37;5.20;;;2.63;;
22282;SDS011;11310;51.528;21.204;2023-05-16T20:24:06;5.13;;;2.72;;
22282;SDS011;11310;51.528;21.204;2023-05-16T20:26:35;6.95;;;3.17;;
22282;SDS011;11310;51.528;21.204;2023-05-16T20:29:04;5.20;;;2.58;;
22282;SDS011;11310;51.528;21.204;2023-05-16T20:31:32;4.63;;;2.85;;
22282;SDS011;11310;51.528;21.204;2023-05-16T20:34:01;6.38;;;3.00;;
22282;SDS011;11310;51.528;21.204;2023-05-16T20:36:30;5.43;;;2.70;;
22282;SDS011;11310;51.528;21.204;2023-05-16T20:39:00;6.13;;;3.22;;
22282;SDS011;11310;51.528;21.204;2023-05-16T20:41:29;6.05;;;3.40;;
22282;SDS011;11310;51.528;21.204;2023-05-16T20:43:58;7.63;;;3.50;;
22282;SDS011;11310;51.528;21.204;2023-05-16T20:46:28;6.47;;;3.67;;
22282;SDS011;11310;51.528;21.204;2023-05-16T20:48:56;7.68;;;3.17;;
22282;SDS011;11310;51.528;21.204;2023-05-16T20:51:25;6.07;;;3.17;;
22282;SDS011;11310;51.528;21.204;2023-05-16T20:53:53;5.40;;;3.05;;
22282;SDS011;11310;51.528;21.204;2023-05-16T20:56:24;5.75;;;3.05;;
22282;SDS011;11310;51.528;21.204;2023-05-16T20:58:53;5.28;;;2.90;;
22282;SDS011;11310;51.528;21.204;2023-05-16T21:01:21;6.88;;;3.70;;
22282;SDS011;11310;51.528;21.204;2023-05-16T21:03:50;7.70;;;3.35;;
22282;SDS011;11310;51.528;21.204;2023-05-16T21:06:19;4.82;;;2.90;;
22282;SDS011;11310;51.528;21.204;2023-05-16T21:08:47;8.50;;;3.50;;
22282;SDS011;11310;51.528;21.204;2023-05-16T21:11:15;5.47;;;2.90;;
22282;SDS011;11310;51.528;21.204;2023-05-16T21:13:45;6.95;;;3.47;;
22282;SDS011;11310;51.528;21.204;2023-05-16T21:16:14;6.05;;;3.00;;
22282;SDS011;11310;51.528;21.204;2023-05-16T21:18:42;7.07;;;3.40;;
22282;SDS011;11310;51.528;21.204;2023-05-16T21:21:12;5.93;;;3.10;;
22282;SDS011;11310;51.528;21.204;2023-05-16T21:23:40;7.40;;;3.70;;
22282;SDS011;11310;51.528;21.204;2023-05-16T21:26:09;5.65;;;3.13;;
22282;SDS011;11310;51.528;21.204;2023-05-16T21:28:37;6.40;;;3.22;;
22282;SDS011;11310;51.528;21.204;2023-05-16T21:31:22;9.45;;;3.20;;
22282;SDS011;11310;51.528;21.204;2023-05-16T21:33:50;6.85;;;3.20;;
22282;SDS011;11310;51.528;21.204;2023-05-16T21:36:19;4.97;;;2.97;;
22282;SDS011;11310;51.528;21.204;2023-05-16T21:38:48;6.95;;;3.03;;
22282;SDS011;11310;51.528;21.204;2023-05-16T21:41:16;5.85;;;3.40;;
22282;SDS011;11310;51.528;21.204;2023-05-16T21:43:49;6.07;;;3.40;;
22282;SDS011;11310;51.528;21.204;2023-05-16T21:46:17;6.80;;;3.15;;
22282;SDS011;11310;51.528;21.204;2023-05-16T21:48:48;7.03;;;3.30;;
22282;SDS011;11310;51.528;21.204;2023-05-16T21:51:17;6.03;;;2.85;;
22282;SDS011;11310;51.528;21.204;2023-05-16T21:53:45;5.95;;;2.90;;
22282;SDS011;11310;51.528;21.204;2023-05-16T21:56:14;4.15;;;2.63;;
22282;SDS011;11310;51.528;21.204;2023-05-16T21:58:43;6.57;;;2.97;;
22282;SDS011;11310;51.528;21.204;2023-05-16T22:01:12;4.78;;;2.90;;
22282;SDS011;11310;51.528;21.204;2023-05-16T22:03:41;6.40;;;3.50;;
22282;SDS011;11310;51.528;21.204;2023-05-16T22:06:11;8.13;;;3.42;;
22282;SDS011;11310;51.528;21.204;2023-05-16T22:08:41;5.53;;;3.15;;
22282;SDS011;11310;51.528;21.204;2023-05-16T22:11:10;6.72;;;3.25;;
22282;SDS011;11310;51.528;21.204;2023-05-16T22:13:39;6.03;;;3.30;;
22282;SDS011;11310;51.528;21.204;2023-05-16T22:16:07;8.63;;;3.30;;
22282;SDS011;11310;51.528;21.204;2023-05-16T22:18:37;4.95;;;3.17;;
22282;SDS011;11310;51.528;21.204;2023-05-16T22:21:06;5.40;;;2.90;;
22282;SDS011;11310;51.528;21.204;2023-05-16T22:23:36;8.05;;;3.53;;
22282;SDS011;11310;51.528;21.204;2023-05-16T22:26:07;8.40;;;3.42;;
22282;SDS011;11310;51.528;21.204;2023-05-16T22:28:36;5.85;;;3.13;;
22282;SDS011;11310;51.528;21.204;2023-05-16T22:31:04;8.73;;;3.22;;
22282;SDS011;11310;51.528;21.204;2023-05-16T22:33:33;6.60;;;3.10;;
22282;SDS011;11310;51.528;21.204;2023-05-16T22:36:02;6.50;;;3.28;;
22282;SDS011;11310;51.528;21.204;2023-05-16T22:38:30;4.97;;;3.15;;
22282;SDS011;11310;51.528;21.204;2023-05-16T22:41:02;6.13;;;3.33;;
22282;SDS011;11310;51.528;21.204;2023-05-16T22:43:30;7.55;;;3.03;;
22282;SDS011;11310;51.528;21.204;2023-05-16T22:45:59;5.03;;;3.08;;
22282;SDS011;11310;51.528;21.204;2023-05-16T22:48:29;6.43;;;3.42;;
22282;SDS011;11310;51.528;21.204;2023-05-16T22:50:58;6.50;;;3.20;;
22282;SDS011;11310;51.528;21.204;2023-05-16T22:53:27;6.47;;;3.58;;
22282;SDS011;11310;51.528;21.204;2023-05-16T22:55:56;6.63;;;3.60;;
22282;SDS011;11310;51.528;21.204;2023-05-16T22:58:26;7.72;;;3.05;;
22282;SDS011;11310;51.528;21.204;2023-05-16T23:00:55;7.57;;;3.33;;
22282;SDS011;11310;51.528;21.204;2023-05-16T23:03:25;7.18;;;3.45;;
22282;SDS011;11310;51.528;21.204;2023-05-16T23:05:54;5.13;;;3.13;;
22282;SDS011;11310;51.528;21.204;2023-05-16T23:08:22;5.82;;;3.40;;
22282;SDS011;11310;51.528;21.204;2023-05-16T23:10:51;5.78;;;3.42;;
22282;SDS011;11310;51.528;21.204;2023-05-16T23:13:20;7.57;;;3.58;;
22282;SDS011;11310;51.528;21.204;2023-05-16T23:15:50;7.00;;;3.40;;
22282;SDS011;11310;51.528;21.204;2023-05-16T23:18:18;5.25;;;3.25;;
22282;SDS011;11310;51.528;21.204;2023-05-16T23:20:47;3.67;;;2.60;;
22282;SDS011;11310;51.528;21.204;2023-05-16T23:23:16;5.53;;;3.40;;
22282;SDS011;11310;51.528;21.204;2023-05-16T23:25:44;7.50;;;3.72;;
22282;SDS011;11310;51.528;21.204;2023-05-16T23:28:17;5.93;;;3.60;;
22282;SDS011;11310;51.528;21.204;2023-05-16T23:30:46;5.88;;;3.35;;
22282;SDS011;11310;51.528;21.204;2023-05-16T23:33:15;7.50;;;3.42;;
22282;SDS011;11310;51.528;21.204;2023-05-16T23:35:44;6.35;;;3.72;;
22282;SDS011;11310;51.528;21.204;2023-05-16T23:38:13;5.90;;;3.50;;
22282;SDS011;11310;51.528;21.204;2023-05-16T23:40:41;8.00;;;3.38;;
22282;SDS011;11310;51.528;21.204;2023-05-16T23:43:10;6.53;;;3.50;;
22282;SDS011;11310;51.528;21.204;2023-05-16T23:45:38;6.30;;;3.65;;
22282;SDS011;11310;51.528;21.204;2023-05-16T23:48:07;5.15;;;3.22;;
22282;SDS011;11310;51.528;21.204;2023-05-16T23:50:37;6.03;;;3.40;;
22282;SDS011;11310;51.528;21.204;2023-05-16T23:53:05;6.05;;;3.42;;
22282;SDS011;11310;51.528;21.204;2023-05-16T23:55:34;5.82;;;3.28;;
22282;SDS011;11310;51.528;21.204;2023-05-16T23:58:02;5.30;;;3.30;;
